createdAt,value
2019-05-29T00:01:19.868Z,1.57
2019-05-29T00:03:51.188Z,1.67
2019-05-29T00:06:25.244Z,1.45
2019-05-29T00:08:59.000Z,1.60
2019-05-29T00:11:32.735Z,1.90
2019-05-29T00:14:19.720Z,2.02
2019-05-29T00:16:42.285Z,1.55
2019-05-29T00:19:16.034Z,1.47
2019-05-29T00:21:49.909Z,1.70
2019-05-29T00:24:23.817Z,1.90
2019-05-29T00:26:57.656Z,1.67
2019-05-29T00:29:31.530Z,1.60
2019-05-29T00:32:05.388Z,1.60
2019-05-29T00:34:39.177Z,1.70
2019-05-29T00:37:12.923Z,1.98
2019-05-29T00:39:46.793Z,1.95
2019-05-29T00:42:20.800Z,2.00
2019-05-29T00:44:54.625Z,1.70
2019-05-29T00:47:28.366Z,1.22
2019-05-29T00:50:02.148Z,1.90
2019-05-29T00:52:35.986Z,2.08
2019-05-29T00:55:10.486Z,2.10
2019-05-29T00:57:44.579Z,1.70
2019-05-29T01:00:19.442Z,1.62
2019-05-29T01:02:53.271Z,1.85
2019-05-29T01:05:27.097Z,2.02
2019-05-29T01:08:01.093Z,1.95
2019-05-29T01:10:34.803Z,1.75
2019-05-29T01:13:08.855Z,2.10
2019-05-29T01:15:42.688Z,2.10
2019-05-29T01:18:16.433Z,1.40
2019-05-29T01:20:50.444Z,1.72
2019-05-29T01:23:24.223Z,1.98
2019-05-29T01:25:58.215Z,1.77
2019-05-29T01:28:32.349Z,1.90
2019-05-29T01:31:06.474Z,1.82
2019-05-29T01:33:40.420Z,1.80
2019-05-29T01:36:14.314Z,2.10
2019-05-29T01:38:48.057Z,2.00
2019-05-29T01:41:21.847Z,2.50
2019-05-29T01:43:55.589Z,2.07
2019-05-29T01:46:29.898Z,2.50
2019-05-29T01:49:03.926Z,2.25
2019-05-29T01:51:37.698Z,1.82
2019-05-29T01:54:11.814Z,1.95
2019-05-29T01:56:45.676Z,2.37
2019-05-29T01:59:19.742Z,2.33
2019-05-29T02:01:53.742Z,2.37
2019-05-29T02:04:28.175Z,2.45
2019-05-29T02:07:02.308Z,2.60
2019-05-29T02:09:36.146Z,2.40
2019-05-29T02:12:10.004Z,2.52
2019-05-29T02:14:43.846Z,2.35
2019-05-29T02:17:17.865Z,2.10
2019-05-29T02:19:51.909Z,1.95
2019-05-29T02:22:25.747Z,2.10
2019-05-29T02:24:59.650Z,2.60
2019-05-29T02:27:33.351Z,2.30
2019-05-29T02:30:08.597Z,2.10
2019-05-29T02:32:42.514Z,1.92
2019-05-29T02:35:17.757Z,1.80
2019-05-29T02:37:51.732Z,1.98
2019-05-29T02:40:27.882Z,2.12
2019-05-29T02:43:00.926Z,2.12
2019-05-29T02:45:53.229Z,2.40
2019-05-29T02:48:10.243Z,2.40
2019-05-29T02:50:44.202Z,2.25
2019-05-29T02:53:17.901Z,2.72
2019-05-29T02:55:51.713Z,2.40
2019-05-29T02:58:27.517Z,2.10
2019-05-29T03:01:01.181Z,2.50
2019-05-29T03:03:39.505Z,2.35
2019-05-29T03:06:10.697Z,2.35
2019-05-29T03:08:44.665Z,2.50
2019-05-29T03:11:18.376Z,2.67
2019-05-29T03:13:52.317Z,2.30
2019-05-29T03:16:26.760Z,2.45
2019-05-29T03:19:01.591Z,2.25
2019-05-29T03:21:35.389Z,2.17
2019-05-29T03:24:09.542Z,1.80
2019-05-29T03:26:43.248Z,2.00
2019-05-29T03:29:17.166Z,1.80
2019-05-29T03:31:50.837Z,1.95
2019-05-29T03:34:27.383Z,1.60
2019-05-29T03:37:00.001Z,1.80
2019-05-29T03:39:34.605Z,2.15
2019-05-29T03:42:08.467Z,1.60
2019-05-29T03:44:42.362Z,2.10
2019-05-29T03:47:19.221Z,2.12
2019-05-29T03:49:53.020Z,2.70
2019-05-29T03:52:28.290Z,1.65
2019-05-29T03:55:02.229Z,1.90
2019-05-29T03:57:35.960Z,1.80
2019-05-29T04:00:10.410Z,1.55
2019-05-29T04:02:44.153Z,1.72
2019-05-29T04:05:17.926Z,2.10
2019-05-29T04:07:51.524Z,1.90
2019-05-29T04:10:35.545Z,1.80
2019-05-29T04:13:09.516Z,1.77
2019-05-29T04:15:44.361Z,1.98
2019-05-29T04:18:20.001Z,1.72
2019-05-29T04:20:55.715Z,2.30
2019-05-29T04:23:34.036Z,2.17
2019-05-29T04:26:10.920Z,2.17
2019-05-29T04:28:45.073Z,2.15
2019-05-29T04:31:19.014Z,2.15
2019-05-29T04:33:52.722Z,2.12
2019-05-29T04:36:28.507Z,2.50
2019-05-29T04:39:01.889Z,1.52
2019-05-29T04:41:37.052Z,2.40
2019-05-29T04:44:10.999Z,2.00
2019-05-29T04:46:44.728Z,2.10
2019-05-29T04:49:20.366Z,2.12
2019-05-29T04:51:53.858Z,2.22
2019-05-29T04:54:29.215Z,2.12
2019-05-29T04:57:03.161Z,2.42
2019-05-29T04:59:37.105Z,2.27
2019-05-29T05:02:10.958Z,1.42
2019-05-29T05:04:44.854Z,2.70
2019-05-29T05:07:18.584Z,2.33
2019-05-29T05:09:52.389Z,2.15
2019-05-29T05:12:26.207Z,2.90
2019-05-29T05:15:00.140Z,2.58
2019-05-29T05:17:33.822Z,2.22
2019-05-29T05:20:07.648Z,2.20
2019-05-29T05:22:41.556Z,2.50
2019-05-29T05:25:15.338Z,2.25
2019-05-29T05:27:49.078Z,2.25
2019-05-29T05:30:22.826Z,2.08
2019-05-29T05:32:56.546Z,2.08
2019-05-29T05:35:30.746Z,1.90
2019-05-29T05:38:04.520Z,2.10
2019-05-29T05:40:41.382Z,2.72
2019-05-29T05:43:23.749Z,2.12
2019-05-29T05:45:49.385Z,2.17
2019-05-29T05:48:23.280Z,2.37
2019-05-29T05:50:56.986Z,1.90
2019-05-29T05:53:31.308Z,2.20
2019-05-29T05:56:05.296Z,1.80
2019-05-29T05:58:39.961Z,1.90
2019-05-29T06:01:14.118Z,1.95
2019-05-29T06:03:47.877Z,1.72
2019-05-29T06:06:21.581Z,1.77
2019-05-29T06:08:55.175Z,1.77
2019-05-29T06:11:28.906Z,2.33
2019-05-29T06:14:02.732Z,2.20
2019-05-29T06:16:36.527Z,2.55
2019-05-29T06:19:10.362Z,2.08
2019-05-29T06:21:44.158Z,2.45
2019-05-29T06:24:17.888Z,2.05
2019-05-29T06:26:52.833Z,1.72
2019-05-29T06:29:26.478Z,2.00
2019-05-29T06:32:00.218Z,1.60
2019-05-29T06:34:35.576Z,2.08
2019-05-29T06:37:09.468Z,1.60
2019-05-29T06:39:43.895Z,1.30
2019-05-29T06:42:17.996Z,2.52
2019-05-29T06:44:52.082Z,2.90
2019-05-29T06:47:25.909Z,1.87
2019-05-29T06:49:59.625Z,2.22
2019-05-29T06:52:33.388Z,1.80
2019-05-29T06:55:07.151Z,2.35
2019-05-29T06:57:42.471Z,3.35
2019-05-29T07:00:34.132Z,2.05
2019-05-29T07:02:51.756Z,1.12
2019-05-29T07:05:25.344Z,1.30
2019-05-29T07:08:15.072Z,1.42
2019-05-29T07:10:36.232Z,1.60
2019-05-29T07:13:10.403Z,1.30
2019-05-29T07:15:45.710Z,1.00
2019-05-29T07:18:19.913Z,1.07
2019-05-29T07:20:53.776Z,1.20
2019-05-29T07:23:27.459Z,1.17
2019-05-29T07:26:01.218Z,0.90
2019-05-29T07:28:34.903Z,0.78
2019-05-29T07:31:08.684Z,0.80
2019-05-29T07:33:43.257Z,1.70
2019-05-29T07:36:16.946Z,0.95
2019-05-29T07:39:02.798Z,0.90
2019-05-29T07:41:26.262Z,1.20
2019-05-29T07:43:59.909Z,1.50
2019-05-29T07:46:33.651Z,2.00
2019-05-29T07:49:07.504Z,1.47
2019-05-29T07:51:43.161Z,1.40
2019-05-29T07:54:16.732Z,1.22
2019-05-29T07:56:50.385Z,1.55
2019-05-29T07:59:24.157Z,1.30
2019-05-29T08:01:57.927Z,1.20
2019-05-29T08:04:31.730Z,1.60
2019-05-29T08:07:05.689Z,1.12
2019-05-29T08:09:39.408Z,1.10
2019-05-29T08:12:13.269Z,1.10
2019-05-29T08:14:47.883Z,1.30
2019-05-29T08:17:21.998Z,1.05
2019-05-29T08:20:05.859Z,1.40
2019-05-29T08:22:34.452Z,1.40
2019-05-29T08:25:07.757Z,1.32
2019-05-29T08:27:42.634Z,1.00
2019-05-29T08:30:16.564Z,1.47
2019-05-29T08:32:51.287Z,0.90
2019-05-29T08:35:25.514Z,0.68
2019-05-29T08:37:59.122Z,0.70
2019-05-29T08:40:33.011Z,0.85
2019-05-29T08:43:06.904Z,0.90
2019-05-29T08:45:41.562Z,0.75
2019-05-29T08:48:15.345Z,0.95
2019-05-29T08:50:49.967Z,4.80
2019-05-29T08:53:23.841Z,1.80
2019-05-29T08:55:58.093Z,1.50
2019-05-29T08:58:31.722Z,1.20
2019-05-29T09:01:05.659Z,1.40
2019-05-29T09:03:39.367Z,1.25
2019-05-29T09:06:13.785Z,1.40
2019-05-29T09:08:48.499Z,1.10
2019-05-29T09:11:23.205Z,1.17
2019-05-29T09:13:57.021Z,0.90
2019-05-29T09:16:31.108Z,0.82
2019-05-29T09:19:04.965Z,0.90
2019-05-29T09:21:38.587Z,0.88
2019-05-29T09:24:12.861Z,1.05
2019-05-29T09:26:47.835Z,1.42
2019-05-29T09:29:23.361Z,0.72
2019-05-29T09:31:56.959Z,0.70
2019-05-29T09:34:30.774Z,0.72
2019-05-29T09:37:04.642Z,1.00
2019-05-29T09:39:38.593Z,0.70
2019-05-29T09:42:12.239Z,1.87
2019-05-29T09:44:45.905Z,0.47
2019-05-29T09:47:20.419Z,0.40
2019-05-29T09:49:55.057Z,0.70
2019-05-29T09:52:30.820Z,0.50
2019-05-29T09:55:04.543Z,0.57
2019-05-29T09:57:38.311Z,0.60
2019-05-29T10:00:12.486Z,0.60
2019-05-29T10:02:46.518Z,0.70
2019-05-29T10:05:20.277Z,0.70
2019-05-29T10:07:55.075Z,0.80
2019-05-29T10:10:29.270Z,1.00
2019-05-29T10:13:04.421Z,0.50
2019-05-29T10:15:38.257Z,0.70
2019-05-29T10:18:30.466Z,0.70
2019-05-29T10:20:47.352Z,0.68
2019-05-29T10:23:21.071Z,0.62
2019-05-29T10:25:58.426Z,0.78
2019-05-29T10:28:49.427Z,0.80
2019-05-29T10:31:07.898Z,0.70
2019-05-29T10:33:42.382Z,0.80
2019-05-29T10:36:16.154Z,0.70
2019-05-29T10:38:50.723Z,0.90
2019-05-29T10:41:24.886Z,0.75
2019-05-29T10:43:58.746Z,1.15
2019-05-29T10:46:32.595Z,0.60
2019-05-29T10:49:06.631Z,0.78
2019-05-29T10:51:57.969Z,1.05
2019-05-29T10:54:15.943Z,0.75
2019-05-29T10:56:50.850Z,0.60
2019-05-29T10:59:24.726Z,0.60
2019-05-29T11:01:58.453Z,0.85
2019-05-29T11:04:32.149Z,0.85
2019-05-29T11:07:05.815Z,0.80
2019-05-29T11:09:44.497Z,0.60
2019-05-29T11:12:14.874Z,0.78
2019-05-29T11:14:48.807Z,0.95
2019-05-29T11:17:22.599Z,0.75
2019-05-29T11:19:58.085Z,0.70
2019-05-29T11:22:31.958Z,0.78
2019-05-29T11:25:21.458Z,0.70
2019-05-29T11:27:41.851Z,0.50
2019-05-29T11:30:15.641Z,0.72
2019-05-29T11:32:52.297Z,0.70
2019-05-29T11:35:25.540Z,0.80
2019-05-29T11:37:59.206Z,1.00
2019-05-29T11:40:33.105Z,0.70
2019-05-29T11:43:07.246Z,0.70
2019-05-29T11:45:41.579Z,0.82
2019-05-29T11:48:15.548Z,0.70
2019-05-29T11:50:50.032Z,0.78
2019-05-29T11:53:23.905Z,0.85
2019-05-29T11:55:57.835Z,0.88
2019-05-29T11:58:31.902Z,1.17
2019-05-29T12:01:06.179Z,1.07
2019-05-29T12:04:05.834Z,0.80
2019-05-29T12:06:15.356Z,0.70
2019-05-29T12:08:49.585Z,0.90
2019-05-29T12:11:23.453Z,0.72
2019-05-29T12:13:58.041Z,0.90
2019-05-29T12:16:32.065Z,1.15
2019-05-29T12:19:06.054Z,0.90
2019-05-29T12:21:42.580Z,1.40
2019-05-29T12:24:15.507Z,1.12
2019-05-29T12:26:49.504Z,1.10
2019-05-29T12:29:23.374Z,1.10
2019-05-29T12:31:57.162Z,0.95
2019-05-29T12:34:31.026Z,1.10
2019-05-29T12:37:05.037Z,0.95
2019-05-29T12:39:38.794Z,1.20
2019-05-29T12:42:12.577Z,1.12
2019-05-29T12:44:46.176Z,1.15
2019-05-29T12:47:19.956Z,1.20
2019-05-29T12:49:53.891Z,1.20
2019-05-29T12:52:27.479Z,1.10
2019-05-29T12:55:02.423Z,1.20
2019-05-29T12:57:36.496Z,1.20
2019-05-29T13:00:11.579Z,1.00
2019-05-29T13:02:45.378Z,1.25
2019-05-29T13:05:20.965Z,1.20
2019-05-29T13:07:54.908Z,1.30
2019-05-29T13:10:31.327Z,1.30
2019-05-29T13:13:10.703Z,1.40
2019-05-29T13:15:40.737Z,1.40
2019-05-29T13:18:14.447Z,1.22
2019-05-29T13:20:48.217Z,0.88
2019-05-29T13:23:21.900Z,1.30
2019-05-29T13:25:55.670Z,1.20
2019-05-29T13:28:29.435Z,1.20
2019-05-29T13:31:04.585Z,1.30
2019-05-29T13:33:38.922Z,1.42
2019-05-29T13:36:12.707Z,1.50
2019-05-29T13:38:46.439Z,1.62
2019-05-29T13:41:20.278Z,1.40
2019-05-29T13:43:54.043Z,1.40
2019-05-29T13:46:27.890Z,1.52
2019-05-29T13:49:02.756Z,1.62
2019-05-29T13:51:36.588Z,1.80
2019-05-29T13:54:16.961Z,1.50
2019-05-29T13:56:46.023Z,2.47
2019-05-29T13:59:19.715Z,2.05
2019-05-29T14:01:53.648Z,2.08
2019-05-29T14:04:27.453Z,1.70
2019-05-29T14:07:03.402Z,1.60
2019-05-29T14:09:37.501Z,1.60
2019-05-29T14:12:11.121Z,1.60
2019-05-29T14:14:44.805Z,1.60
2019-05-29T14:17:18.487Z,1.60
2019-05-29T14:19:52.054Z,1.57
2019-05-29T14:22:25.838Z,1.67
2019-05-29T14:24:59.487Z,1.70
2019-05-29T14:27:33.226Z,1.82
2019-05-29T14:30:08.539Z,1.70
2019-05-29T14:32:43.278Z,2.00
2019-05-29T14:35:17.025Z,1.70
2019-05-29T14:37:50.682Z,1.52
2019-05-29T14:40:24.459Z,1.60
2019-05-29T14:42:58.194Z,1.50
2019-05-29T14:45:31.994Z,1.80
2019-05-29T14:48:06.184Z,1.87
2019-05-29T14:50:40.105Z,1.62
2019-05-29T14:53:13.843Z,1.50
2019-05-29T14:55:47.605Z,1.90
2019-05-29T14:58:21.228Z,2.12
2019-05-29T15:00:54.950Z,1.62
2019-05-29T15:03:28.801Z,1.80
2019-05-29T15:06:03.528Z,1.72
2019-05-29T15:08:37.303Z,1.70
2019-05-29T15:11:11.984Z,1.70
2019-05-29T15:13:45.840Z,1.70
2019-05-29T15:16:19.476Z,1.62
2019-05-29T15:18:53.212Z,1.40
2019-05-29T15:21:26.957Z,1.90
2019-05-29T15:24:00.644Z,1.72
2019-05-29T15:26:34.652Z,1.80
2019-05-29T15:29:08.396Z,1.77
2019-05-29T15:31:42.108Z,1.65
2019-05-29T15:34:16.514Z,2.20
2019-05-29T15:36:50.586Z,1.60
2019-05-29T15:39:24.214Z,1.87
2019-05-29T15:41:58.241Z,1.70
2019-05-29T15:44:31.963Z,1.77
2019-05-29T15:47:06.861Z,1.85
2019-05-29T15:49:40.541Z,1.98
2019-05-29T15:52:15.257Z,1.65
2019-05-29T15:54:49.242Z,1.55
2019-05-29T15:57:23.252Z,1.95
2019-05-29T15:59:57.160Z,1.75
2019-05-29T16:02:31.017Z,1.62
2019-05-29T16:05:05.595Z,1.10
2019-05-29T16:07:40.319Z,1.27
2019-05-29T16:10:19.130Z,1.50
2019-05-29T16:12:52.609Z,1.32
2019-05-29T16:15:26.552Z,1.40
2019-05-29T16:18:00.260Z,1.27
2019-05-29T16:20:34.074Z,1.02
2019-05-29T16:23:07.880Z,1.57
2019-05-29T16:25:41.484Z,1.00
2019-05-29T16:28:15.490Z,1.10
2019-05-29T16:30:49.577Z,1.10
2019-05-29T16:33:23.408Z,1.17
2019-05-29T16:35:57.423Z,0.90
2019-05-29T16:38:31.249Z,1.10
2019-05-29T16:41:05.132Z,0.85
2019-05-29T16:43:38.982Z,0.98
2019-05-29T16:46:15.992Z,1.00
2019-05-29T16:48:48.285Z,1.17
2019-05-29T16:51:23.053Z,1.20
2019-05-29T16:53:57.351Z,1.02
2019-05-29T16:56:31.476Z,0.95
2019-05-29T16:59:05.332Z,1.00
2019-05-29T17:01:39.059Z,1.20
2019-05-29T17:04:13.541Z,1.02
2019-05-29T17:06:47.283Z,0.88
2019-05-29T17:09:22.234Z,0.85
2019-05-29T17:11:57.799Z,1.82
2019-05-29T17:14:31.413Z,2.00
2019-05-29T17:17:05.494Z,1.80
2019-05-29T17:19:39.244Z,1.82
2019-05-29T17:22:13.078Z,1.70
2019-05-29T17:24:46.900Z,1.62
2019-05-29T17:27:21.291Z,1.50
2019-05-29T17:29:55.230Z,1.20
2019-05-29T17:32:29.093Z,1.62
2019-05-29T17:35:03.085Z,1.20
2019-05-29T17:37:36.879Z,1.42
2019-05-29T17:40:10.878Z,1.40
2019-05-29T17:42:44.757Z,1.50
2019-05-29T17:45:21.532Z,1.42
2019-05-29T17:47:54.387Z,1.50
2019-05-29T17:50:28.078Z,1.60
2019-05-29T17:53:02.085Z,1.57
2019-05-29T17:55:35.863Z,1.40
2019-05-29T17:58:09.643Z,1.35
2019-05-29T18:00:43.603Z,1.30
2019-05-29T18:03:18.031Z,1.40
2019-05-29T18:05:51.862Z,1.40
2019-05-29T18:08:26.866Z,1.15
2019-05-29T18:11:01.585Z,1.20
2019-05-29T18:13:35.724Z,1.50
2019-05-29T18:16:09.964Z,1.98
2019-05-29T18:18:43.999Z,1.95
2019-05-29T18:21:19.578Z,1.62
2019-05-29T18:23:53.726Z,2.10
2019-05-29T18:26:46.286Z,1.92
2019-05-29T18:29:03.783Z,2.02
2019-05-29T18:31:37.705Z,1.87
2019-05-29T18:34:11.942Z,1.95
2019-05-29T18:36:46.183Z,1.90
2019-05-29T18:39:20.692Z,1.98
2019-05-29T18:41:56.242Z,1.98
2019-05-29T18:44:31.116Z,1.98
2019-05-29T18:47:05.185Z,2.37
2019-05-29T18:49:39.163Z,1.90
2019-05-29T18:52:13.503Z,2.00
2019-05-29T18:54:47.760Z,2.35
2019-05-29T18:57:22.825Z,2.00
2019-05-29T18:59:56.775Z,1.98
2019-05-29T19:02:31.619Z,2.05
2019-05-29T19:05:06.513Z,2.10
2019-05-29T19:07:40.283Z,2.12
2019-05-29T19:10:14.663Z,1.90
2019-05-29T19:12:48.429Z,2.40
2019-05-29T19:15:22.237Z,2.08
2019-05-29T19:17:56.103Z,2.20
2019-05-29T19:20:30.513Z,1.82
2019-05-29T19:23:04.336Z,2.27
2019-05-29T19:25:37.988Z,2.10
2019-05-29T19:28:11.732Z,2.00
2019-05-29T19:30:45.475Z,2.67
2019-05-29T19:33:19.274Z,2.58
2019-05-29T19:35:52.856Z,2.40
2019-05-29T19:38:27.712Z,2.42
2019-05-29T19:41:01.681Z,2.55
2019-05-29T19:43:35.417Z,2.25
2019-05-29T19:46:09.229Z,2.60
2019-05-29T19:48:43.068Z,2.60
2019-05-29T19:51:16.953Z,2.40
2019-05-29T19:53:50.756Z,2.40
2019-05-29T19:56:25.566Z,2.65
2019-05-29T19:58:59.605Z,3.02
2019-05-29T20:01:37.503Z,3.20
2019-05-29T20:04:08.686Z,3.00
2019-05-29T20:06:42.310Z,2.70
2019-05-29T20:09:16.182Z,3.10
2019-05-29T20:11:51.212Z,3.15
2019-05-29T20:14:25.028Z,2.83
2019-05-29T20:16:58.756Z,2.77
2019-05-29T20:19:35.618Z,3.15
2019-05-29T20:22:08.045Z,4.35
2019-05-29T20:24:41.651Z,3.37
2019-05-29T20:27:15.359Z,3.00
2019-05-29T20:29:49.016Z,3.00
2019-05-29T20:32:22.700Z,2.87
2019-05-29T20:34:56.388Z,3.37
2019-05-29T20:37:30.138Z,3.55
2019-05-29T20:40:04.128Z,2.87
2019-05-29T20:42:38.490Z,2.22
2019-05-29T20:45:12.543Z,2.77
2019-05-29T20:47:46.271Z,2.30
2019-05-29T20:50:20.843Z,2.08
2019-05-29T20:52:54.593Z,2.15
2019-05-29T20:55:29.200Z,2.33
2019-05-29T20:58:03.411Z,2.02
2019-05-29T21:00:38.417Z,2.80
2019-05-29T21:03:12.204Z,2.10
2019-05-29T21:05:48.136Z,2.67
2019-05-29T21:08:21.857Z,2.25
2019-05-29T21:10:55.536Z,2.20
2019-05-29T21:13:29.501Z,1.80
2019-05-29T21:16:03.424Z,2.20
2019-05-29T21:18:37.887Z,2.20
2019-05-29T21:21:11.734Z,1.98
2019-05-29T21:23:45.483Z,1.60
2019-05-29T21:26:19.264Z,2.10
2019-05-29T21:28:53.046Z,2.12
2019-05-29T21:31:26.964Z,2.12
2019-05-29T21:34:00.620Z,1.82
2019-05-29T21:36:34.476Z,2.08
2019-05-29T21:39:09.194Z,1.92
2019-05-29T21:41:42.944Z,1.90
2019-05-29T21:44:16.669Z,1.80
2019-05-29T21:46:50.345Z,1.90
2019-05-29T21:49:24.117Z,1.70
2019-05-29T21:51:57.759Z,2.10
2019-05-29T21:54:31.648Z,1.90
2019-05-29T21:57:05.361Z,1.77
2019-05-29T21:59:39.649Z,1.65
2019-05-29T22:02:13.664Z,1.77
2019-05-29T22:04:48.684Z,1.82
2019-05-29T22:07:22.581Z,1.70
2019-05-29T22:09:56.640Z,1.85
2019-05-29T22:12:30.666Z,1.60
2019-05-29T22:15:04.978Z,1.80
2019-05-29T22:17:38.694Z,1.80
2019-05-29T22:20:12.589Z,1.80
2019-05-29T22:22:46.299Z,1.70
2019-05-29T22:25:20.125Z,1.70
2019-05-29T22:27:53.896Z,2.00
2019-05-29T22:30:28.217Z,2.08
2019-05-29T22:33:02.042Z,1.92
2019-05-29T22:35:35.897Z,2.02
2019-05-29T22:38:09.646Z,1.65
2019-05-29T22:40:43.605Z,2.00
2019-05-29T22:43:17.497Z,2.00
2019-05-29T22:45:51.549Z,2.02
2019-05-29T22:48:25.865Z,1.90
2019-05-29T22:51:00.146Z,1.92
2019-05-29T22:53:34.035Z,2.12
2019-05-29T22:56:07.733Z,2.20
2019-05-29T22:58:41.606Z,1.95
2019-05-29T23:01:15.443Z,2.47
2019-05-29T23:03:49.268Z,2.40
2019-05-29T23:06:22.948Z,2.30
2019-05-29T23:08:56.875Z,2.10
2019-05-29T23:11:30.617Z,2.15
2019-05-29T23:14:04.415Z,2.08
2019-05-29T23:16:38.439Z,2.10
2019-05-29T23:19:12.355Z,2.12
2019-05-29T23:21:46.122Z,2.00
2019-05-29T23:24:20.171Z,2.40
2019-05-29T23:26:54.981Z,2.22
2019-05-29T23:29:28.713Z,2.20
2019-05-29T23:32:03.286Z,2.12
2019-05-29T23:34:37.235Z,2.30
2019-05-29T23:37:13.694Z,2.00
2019-05-29T23:39:46.370Z,2.12
2019-05-29T23:42:20.000Z,2.15
2019-05-29T23:44:54.126Z,1.70
2019-05-29T23:47:28.928Z,2.10
2019-05-29T23:50:04.119Z,2.20
2019-05-29T23:52:38.544Z,2.20
2019-05-29T23:55:12.681Z,2.00
2019-05-29T23:57:46.320Z,1.82
